UAE88 LSZH-OMDB
Flight info
| Callsign | UAE88 |
|---|---|
| Flight time | N/A |
| Altitude | 39000 |
| Route | DEGES Z2 XEBIX L607 ELMEM N606 GIRIS DCT TISAX DCT NAXAV DCT GIKEB DCT ROSKA DCT ROTAR DCT AIOSA DCT LATAN DCT SALUN N705 MMA P751 DASUM Y234 FYM M872 GOKSA/N0488F410 M872 BDB Y214 RAPMA DCT KUVSO DCT KATIT DCT PEKEM M628 RIGIL G783 ELUDA/N0465F350 G783 ASPED Q308 KIPOK Q568 IMPED |
| Aircraft | A388/J-SADE2E3FGHIJ3J4J5M1RWXY/LB1D1 |
Departure
| Time | 2026-05-06 08:20 |
|---|---|
| Airport | Zürich Airport (LSZH) |
Arrival
| Time | N/A |
|---|---|
| Airport | Dubai International Airport (OMDB) |
| Time | Latitude | Longitude | Altitude | Speed | Heading |
|---|---|---|---|---|---|
| 2026-05-06 07:42 | 47.46200 | 8.55096 | 1402 ft | 0 kts | 155° |
| 2026-05-06 08:08 | 47.46203 | 8.55094 | 1402 ft | 1 kts | 155° |
| 2026-05-06 08:09 | 47.46213 | 8.55088 | 1411 ft | 2 kts | 155° |
| 2026-05-06 08:09 | 47.46224 | 8.55080 | 1410 ft | 2 kts | 155° |
| 2026-05-06 08:09 | 47.46235 | 8.55073 | 1410 ft | 3 kts | 155° |
| 2026-05-06 08:09 | 47.46253 | 8.55068 | 1410 ft | 3 kts | 180° |
| 2026-05-06 08:10 | 47.46270 | 8.55079 | 1411 ft | 3 kts | 218° |
| 2026-05-06 08:10 | 47.46279 | 8.55103 | 1411 ft | 3 kts | 246° |
| 2026-05-06 08:10 | 47.46282 | 8.55139 | 1412 ft | 3 kts | 274° |
| 2026-05-06 08:10 | 47.46281 | 8.55145 | 1412 ft | 0 kts | 274° |
| 2026-05-06 08:12 | 47.46281 | 8.55143 | 1412 ft | 2 kts | 274° |
| 2026-05-06 08:12 | 47.46284 | 8.55101 | 1407 ft | 7 kts | 276° |
| 2026-05-06 08:12 | 47.46293 | 8.55007 | 1409 ft | 11 kts | 277° |
| 2026-05-06 08:12 | 47.46299 | 8.54879 | 1407 ft | 13 kts | 274° |
| 2026-05-06 08:13 | 47.46316 | 8.54755 | 1408 ft | 12 kts | 307° |
| 2026-05-06 08:13 | 47.46395 | 8.54681 | 1409 ft | 15 kts | 334° |
| 2026-05-06 08:13 | 47.46490 | 8.54615 | 1407 ft | 16 kts | 335° |
| 2026-05-06 08:13 | 47.46598 | 8.54541 | 1404 ft | 18 kts | 335° |
| 2026-05-06 08:14 | 47.46714 | 8.54462 | 1408 ft | 18 kts | 337° |
| 2026-05-06 08:14 | 47.46848 | 8.54385 | 1407 ft | 23 kts | 336° |
| 2026-05-06 08:14 | 47.46984 | 8.54291 | 1409 ft | 21 kts | 334° |
| 2026-05-06 08:14 | 47.47113 | 8.54203 | 1411 ft | 20 kts | 335° |
| 2026-05-06 08:15 | 47.47236 | 8.54117 | 1412 ft | 20 kts | 335° |
| 2026-05-06 08:15 | 47.47370 | 8.54025 | 1413 ft | 21 kts | 334° |
| 2026-05-06 08:15 | 47.47504 | 8.53934 | 1410 ft | 19 kts | 335° |
| 2026-05-06 08:15 | 47.47587 | 8.53866 | 1408 ft | 11 kts | 313° |
| 2026-05-06 08:16 | 47.47609 | 8.53760 | 1405 ft | 11 kts | 259° |
| 2026-05-06 08:16 | 47.47583 | 8.53661 | 1408 ft | 7 kts | 245° |
| 2026-05-06 08:16 | 47.47548 | 8.53612 | 1409 ft | 7 kts | 185° |
| 2026-05-06 08:16 | 47.47502 | 8.53640 | 1409 ft | 5 kts | 152° |
| 2026-05-06 08:17 | 47.47499 | 8.53642 | 1408 ft | 0 kts | 153° |
| 2026-05-06 08:19 | 47.47393 | 8.53717 | 1406 ft | 50 kts | 155° |
| 2026-05-06 08:19 | 47.46844 | 8.54094 | 1405 ft | 120 kts | 155° |
| 2026-05-06 08:19 | 47.45936 | 8.54717 | 1410 ft | 164 kts | 155° |
| 2026-05-06 08:19 | 47.44863 | 8.55472 | 1680 ft | 172 kts | 154° |
| 2026-05-06 08:20 | 47.43806 | 8.56255 | 2233 ft | 169 kts | 153° |
| 2026-05-06 08:20 | 47.42730 | 8.57013 | 2687 ft | 173 kts | 156° |
| 2026-05-06 08:20 | 47.41650 | 8.57826 | 3062 ft | 179 kts | 140° |
| 2026-05-06 08:20 | 47.40971 | 8.59442 | 3205 ft | 193 kts | 101° |
| 2026-05-06 08:21 | 47.41088 | 8.61416 | 3324 ft | 205 kts | 68° |
| 2026-05-06 08:21 | 47.41809 | 8.63302 | 3466 ft | 218 kts | 56° |
| 2026-05-06 08:21 | 47.42671 | 8.65209 | 3569 ft | 232 kts | 57° |
| 2026-05-06 08:21 | 47.43542 | 8.67378 | 3846 ft | 255 kts | 61° |
| 2026-05-06 08:22 | 47.44386 | 8.69794 | 4320 ft | 269 kts | 64° |
| 2026-05-06 08:22 | 47.45189 | 8.72290 | 5217 ft | 269 kts | 65° |
| 2026-05-06 08:22 | 47.45965 | 8.74794 | 6086 ft | 269 kts | 68° |
| 2026-05-06 08:22 | 47.46518 | 8.77460 | 6820 ft | 274 kts | 80° |
| 2026-05-06 08:23 | 47.46688 | 8.80270 | 7587 ft | 277 kts | 90° |
| 2026-05-06 08:23 | 47.46599 | 8.83123 | 8376 ft | 279 kts | 99° |
| 2026-05-06 08:23 | 47.46208 | 8.85894 | 9153 ft | 281 kts | 105° |
| 2026-05-06 08:23 | 47.45768 | 8.88760 | 9910 ft | 284 kts | 105° |
| 2026-05-06 08:24 | 47.45337 | 8.91686 | 10264 ft | 302 kts | 105° |
| 2026-05-06 08:24 | 47.44887 | 8.94821 | 10453 ft | 322 kts | 105° |
| 2026-05-06 08:24 | 47.44422 | 8.98100 | 10726 ft | 337 kts | 105° |
| 2026-05-06 08:24 | 47.43935 | 9.01551 | 11348 ft | 341 kts | 105° |
| 2026-05-06 08:25 | 47.43452 | 9.04952 | 11940 ft | 345 kts | 105° |
| 2026-05-06 08:25 | 47.42954 | 9.08436 | 12576 ft | 348 kts | 105° |
| 2026-05-06 08:25 | 47.42448 | 9.11940 | 13192 ft | 351 kts | 105° |
| 2026-05-06 08:25 | 47.41933 | 9.15491 | 13792 ft | 356 kts | 106° |
| 2026-05-06 08:26 | 47.41580 | 9.19141 | 14302 ft | 364 kts | 96° |
| 2026-05-06 08:26 | 47.41686 | 9.22903 | 14889 ft | 371 kts | 86° |
| 2026-05-06 08:26 | 47.42214 | 9.26661 | 15437 ft | 377 kts | 80° |
| 2026-05-06 08:26 | 47.42810 | 9.30434 | 15980 ft | 381 kts | 80° |
| 2026-05-06 08:27 | 47.43396 | 9.34258 | 16533 ft | 384 kts | 81° |
| 2026-05-06 08:27 | 47.43984 | 9.38141 | 17077 ft | 388 kts | 81° |
| 2026-05-06 08:27 | 47.44570 | 9.42037 | 17606 ft | 391 kts | 81° |
| 2026-05-06 08:27 | 47.45164 | 9.45989 | 18100 ft | 395 kts | 81° |
| 2026-05-06 08:28 | 47.45759 | 9.49954 | 18596 ft | 397 kts | 81° |
| 2026-05-06 08:28 | 47.46358 | 9.53951 | 19046 ft | 400 kts | 81° |
| 2026-05-06 08:28 | 47.46910 | 9.57991 | 19490 ft | 401 kts | 86° |
| 2026-05-06 08:28 | 47.47117 | 9.62089 | 19925 ft | 400 kts | 94° |
| 2026-05-06 08:29 | 47.46960 | 9.66177 | 20386 ft | 399 kts | 99° |
| 2026-05-06 08:29 | 47.46716 | 9.70282 | 20812 ft | 402 kts | 99° |
| 2026-05-06 08:29 | 47.46489 | 9.74418 | 21250 ft | 405 kts | 99° |
| 2026-05-06 08:29 | 47.46264 | 9.78580 | 21694 ft | 408 kts | 99° |
| 2026-05-06 08:30 | 47.46035 | 9.82768 | 22127 ft | 410 kts | 99° |
| 2026-05-06 08:30 | 47.45804 | 9.86992 | 22540 ft | 413 kts | 99° |
| 2026-05-06 08:30 | 47.45567 | 9.91238 | 22984 ft | 416 kts | 100° |
| 2026-05-06 08:30 | 47.45329 | 9.95456 | 23411 ft | 419 kts | 100° |
| 2026-05-06 08:31 | 47.45085 | 9.99759 | 23742 ft | 422 kts | 100° |
| 2026-05-06 08:31 | 47.44836 | 10.04090 | 24038 ft | 425 kts | 100° |
| 2026-05-06 08:31 | 47.44580 | 10.08527 | 24298 ft | 429 kts | 100° |
| 2026-05-06 08:31 | 47.44330 | 10.12868 | 24672 ft | 431 kts | 100° |
| 2026-05-06 08:32 | 47.44156 | 10.15860 | 24851 ft | 434 kts | 100° |
| 2026-05-06 08:32 | 47.44020 | 10.17929 | 25014 ft | 434 kts | 103° |
| 2026-05-06 08:32 | 47.43488 | 10.22316 | 25358 ft | 434 kts | 108° |
| 2026-05-06 08:32 | 47.42883 | 10.26694 | 25751 ft | 437 kts | 107° |
| 2026-05-06 08:33 | 47.42283 | 10.31116 | 26065 ft | 442 kts | 107° |
| 2026-05-06 08:33 | 47.41680 | 10.35587 | 26439 ft | 446 kts | 107° |
| 2026-05-06 08:33 | 47.41059 | 10.40092 | 26811 ft | 447 kts | 110° |
| 2026-05-06 08:33 | 47.40012 | 10.44359 | 27199 ft | 438 kts | 123° |
| 2026-05-06 08:34 | 47.38373 | 10.48081 | 27549 ft | 429 kts | 136° |
| 2026-05-06 08:34 | 47.33743 | 10.53270 | 28311 ft | 415 kts | 159° |
| 2026-05-06 08:34 | 47.31156 | 10.55199 | 28760 ft | 418 kts | 160° |
| 2026-05-06 08:35 | 47.28596 | 10.57125 | 29245 ft | 420 kts | 159° |
| 2026-05-06 08:35 | 47.25990 | 10.59129 | 29747 ft | 423 kts | 159° |
| 2026-05-06 08:35 | 47.23374 | 10.61174 | 30118 ft | 428 kts | 159° |
| 2026-05-06 08:35 | 47.20730 | 10.63254 | 30440 ft | 432 kts | 159° |
| 2026-05-06 08:36 | 47.18073 | 10.65344 | 30893 ft | 432 kts | 160° |
| 2026-05-06 08:36 | 47.15340 | 10.67152 | 31284 ft | 430 kts | 166° |
| 2026-05-06 08:36 | 47.12531 | 10.68676 | 31640 ft | 432 kts | 166° |
| 2026-05-06 08:36 | 47.09703 | 10.70210 | 32040 ft | 435 kts | 166° |
| 2026-05-06 08:37 | 47.06850 | 10.71765 | 32421 ft | 438 kts | 166° |
| 2026-05-06 08:37 | 47.03986 | 10.73330 | 32695 ft | 441 kts | 166° |
| 2026-05-06 08:37 | 47.01103 | 10.74908 | 33068 ft | 443 kts | 166° |
| 2026-05-06 08:37 | 46.98207 | 10.76534 | 33470 ft | 447 kts | 166° |
| 2026-05-06 08:38 | 46.95292 | 10.78190 | 33794 ft | 451 kts | 166° |
| 2026-05-06 08:38 | 46.92369 | 10.79853 | 34087 ft | 453 kts | 166° |
| 2026-05-06 08:38 | 46.89414 | 10.81526 | 34319 ft | 457 kts | 166° |
| 2026-05-06 08:38 | 46.86433 | 10.83206 | 34668 ft | 458 kts | 165° |
| 2026-05-06 08:39 | 46.83452 | 10.84884 | 35072 ft | 459 kts | 165° |
| 2026-05-06 08:39 | 46.80501 | 10.86668 | 35431 ft | 465 kts | 160° |
| 2026-05-06 08:39 | 46.77641 | 10.88962 | 35783 ft | 472 kts | 153° |
| 2026-05-06 08:39 | 46.74953 | 10.91764 | 36159 ft | 478 kts | 147° |
| 2026-05-06 08:40 | 46.72475 | 10.95038 | 36577 ft | 483 kts | 140° |
| 2026-05-06 08:40 | 46.70095 | 10.98506 | 36960 ft | 484 kts | 140° |
| 2026-05-06 08:40 | 46.67698 | 11.01961 | 37343 ft | 485 kts | 140° |
| 2026-05-06 08:40 | 46.65320 | 11.05364 | 37724 ft | 485 kts | 140° |
| 2026-05-06 08:41 | 46.62910 | 11.08801 | 38115 ft | 485 kts | 140° |
| 2026-05-06 08:41 | 46.60491 | 11.12239 | 38358 ft | 487 kts | 140° |
| 2026-05-06 08:41 | 46.58061 | 11.15690 | 38671 ft | 487 kts | 140° |
| 2026-05-06 08:41 | 46.55631 | 11.19137 | 38903 ft | 489 kts | 140° |
| 2026-05-06 08:42 | 46.53184 | 11.22601 | 38913 ft | 494 kts | 140° |
| 2026-05-06 08:42 | 46.48304 | 11.29506 | 38921 ft | 488 kts | 140° |
| 2026-05-06 08:43 | 46.43101 | 11.35779 | 38921 ft | 484 kts | 148° |
| 2026-05-06 08:43 | 46.37638 | 11.41547 | 39233 ft | 486 kts | 148° |
| 2026-05-06 08:43 | 46.34909 | 11.44445 | 39560 ft | 485 kts | 148° |
| 2026-05-06 08:44 | 46.32225 | 11.47294 | 39844 ft | 485 kts | 148° |
| 2026-05-06 08:44 | 46.29516 | 11.50168 | 40159 ft | 484 kts | 148° |
| 2026-05-06 08:44 | 46.26752 | 11.53096 | 40441 ft | 484 kts | 148° |
| 2026-05-06 08:44 | 46.24032 | 11.55973 | 40720 ft | 484 kts | 148° |
| 2026-05-06 08:45 | 46.21311 | 11.58847 | 40907 ft | 486 kts | 148° |
| 2026-05-06 08:45 | 46.16149 | 11.65063 | 40934 ft | 485 kts | 140° |
| 2026-05-06 08:46 | 46.11406 | 11.72039 | 40938 ft | 488 kts | 139° |
| 2026-05-06 08:46 | 46.06641 | 11.79005 | 40938 ft | 488 kts | 139° |
| 2026-05-06 08:47 | 46.01861 | 11.85946 | 40947 ft | 487 kts | 139° |
| 2026-05-06 08:47 | 45.97080 | 11.92867 | 40943 ft | 487 kts | 139° |
| 2026-05-06 08:48 | 45.92289 | 11.99785 | 40954 ft | 489 kts | 140° |
| 2026-05-06 08:48 | 45.87507 | 12.06672 | 40966 ft | 490 kts | 140° |
| 2026-05-06 08:49 | 45.82657 | 12.13641 | 40967 ft | 490 kts | 140° |
| 2026-05-06 08:49 | 45.77866 | 12.20506 | 40963 ft | 490 kts | 140° |
| 2026-05-06 08:50 | 45.73045 | 12.27396 | 40933 ft | 489 kts | 140° |
| 2026-05-06 08:50 | 45.68220 | 12.34273 | 40932 ft | 489 kts | 140° |
| 2026-05-06 08:51 | 45.63391 | 12.41139 | 40950 ft | 489 kts | 140° |
| 2026-05-06 08:51 | 45.58565 | 12.47985 | 40941 ft | 488 kts | 140° |
| 2026-05-06 08:52 | 45.53742 | 12.54808 | 40928 ft | 487 kts | 140° |
| 2026-05-06 08:52 | 45.48919 | 12.61611 | 40931 ft | 489 kts | 141° |
| 2026-05-06 08:53 | 45.44069 | 12.68436 | 40939 ft | 489 kts | 141° |
| 2026-05-06 08:53 | 45.39200 | 12.75270 | 40943 ft | 493 kts | 141° |
| 2026-05-06 08:54 | 45.34390 | 12.82090 | 40928 ft | 492 kts | 137° |
| 2026-05-06 08:54 | 45.30135 | 12.89795 | 40911 ft | 499 kts | 128° |
| 2026-05-06 08:55 | 45.26579 | 12.98280 | 40898 ft | 496 kts | 131° |
| 2026-05-06 08:55 | 45.22054 | 13.05499 | 40899 ft | 487 kts | 141° |
| 2026-05-06 08:56 | 45.17164 | 13.12167 | 40919 ft | 489 kts | 141° |
| 2026-05-06 08:56 | 45.12250 | 13.18861 | 40934 ft | 490 kts | 141° |
| 2026-05-06 08:57 | 45.07346 | 13.25581 | 40942 ft | 491 kts | 141° |
| 2026-05-06 08:57 | 45.03259 | 13.31176 | 40948 ft | 492 kts | 141° |
| 2026-05-06 08:58 | 44.98333 | 13.37897 | 40954 ft | 493 kts | 141° |
| 2026-05-06 08:58 | 44.93391 | 13.44623 | 40957 ft | 493 kts | 141° |
| 2026-05-06 08:59 | 44.88444 | 13.51338 | 40975 ft | 494 kts | 141° |
| 2026-05-06 08:59 | 44.83484 | 13.58052 | 40990 ft | 494 kts | 141° |
| 2026-05-06 09:00 | 44.78549 | 13.64718 | 40995 ft | 495 kts | 141° |
| 2026-05-06 09:00 | 44.73578 | 13.71414 | 40994 ft | 494 kts | 141° |
| 2026-05-06 09:01 | 44.68610 | 13.78091 | 40995 ft | 494 kts | 141° |
| 2026-05-06 09:01 | 44.63637 | 13.84756 | 40992 ft | 494 kts | 141° |
| 2026-05-06 09:02 | 44.58661 | 13.91410 | 40988 ft | 493 kts | 141° |
| 2026-05-06 09:02 | 44.53695 | 13.98033 | 40986 ft | 493 kts | 141° |
| 2026-05-06 09:03 | 44.48725 | 14.04646 | 40981 ft | 492 kts | 141° |
| 2026-05-06 09:03 | 44.43753 | 14.11245 | 40976 ft | 492 kts | 141° |
| 2026-05-06 09:04 | 44.38818 | 14.17778 | 40984 ft | 492 kts | 141° |
| 2026-05-06 09:04 | 44.33841 | 14.24351 | 40986 ft | 492 kts | 141° |
| 2026-05-06 09:05 | 44.28857 | 14.30918 | 40989 ft | 492 kts | 141° |
| 2026-05-06 09:05 | 44.23883 | 14.37455 | 40996 ft | 491 kts | 141° |
| 2026-05-06 09:06 | 44.18917 | 14.43966 | 40991 ft | 490 kts | 141° |
| 2026-05-06 09:06 | 44.13948 | 14.50465 | 41001 ft | 489 kts | 141° |
| 2026-05-06 09:07 | 44.08993 | 14.56930 | 40998 ft | 487 kts | 141° |
| 2026-05-06 09:07 | 44.04050 | 14.63365 | 40989 ft | 486 kts | 141° |
| 2026-05-06 09:08 | 43.99117 | 14.69769 | 40980 ft | 484 kts | 141° |
| 2026-05-06 09:08 | 43.94171 | 14.76101 | 40973 ft | 481 kts | 146° |
| 2026-05-06 09:08 | 43.91448 | 14.78612 | 40973 ft | 474 kts | 157° |
| 2026-05-06 09:09 | 43.88429 | 14.80374 | 40972 ft | 468 kts | 164° |
| 2026-05-06 09:09 | 43.82310 | 14.83440 | 40964 ft | 471 kts | 156° |
| 2026-05-06 09:09 | 43.79512 | 14.85856 | 40962 ft | 478 kts | 145° |
| 2026-05-06 09:10 | 43.77090 | 14.89036 | 40961 ft | 484 kts | 134° |
| 2026-05-06 09:10 | 43.75140 | 14.92868 | 40962 ft | 491 kts | 122° |
| 2026-05-06 09:10 | 43.73727 | 14.97182 | 40966 ft | 495 kts | 114° |
| 2026-05-06 09:11 | 43.70530 | 15.05514 | 40967 ft | 488 kts | 131° |
| 2026-05-06 09:11 | 43.65990 | 15.12406 | 40976 ft | 484 kts | 140° |
| 2026-05-06 09:12 | 43.61058 | 15.18740 | 40982 ft | 485 kts | 141° |
| 2026-05-06 09:12 | 43.56074 | 15.25031 | 40990 ft | 486 kts | 141° |
| 2026-05-06 09:13 | 43.51087 | 15.31346 | 40996 ft | 488 kts | 141° |
| 2026-05-06 09:13 | 43.46082 | 15.37682 | 41003 ft | 489 kts | 141° |
| 2026-05-06 09:14 | 43.41070 | 15.44013 | 41011 ft | 489 kts | 141° |
| 2026-05-06 09:14 | 43.36087 | 15.50292 | 41010 ft | 489 kts | 141° |
| 2026-05-06 09:15 | 43.31070 | 15.56600 | 41005 ft | 489 kts | 141° |
| 2026-05-06 09:15 | 43.26048 | 15.62898 | 40999 ft | 488 kts | 141° |
| 2026-05-06 09:16 | 43.21027 | 15.69181 | 40999 ft | 488 kts | 141° |
| 2026-05-06 09:16 | 43.16006 | 15.75449 | 40994 ft | 488 kts | 141° |
| 2026-05-06 09:17 | 43.10988 | 15.81698 | 40993 ft | 488 kts | 141° |
| 2026-05-06 09:17 | 43.05965 | 15.87940 | 40997 ft | 488 kts | 141° |
| 2026-05-06 09:18 | 43.00938 | 15.94172 | 40996 ft | 488 kts | 141° |
| 2026-05-06 09:18 | 42.95903 | 16.00399 | 40998 ft | 488 kts | 141° |
| 2026-05-06 09:19 | 42.90861 | 16.06621 | 41001 ft | 488 kts | 141° |
| 2026-05-06 09:19 | 42.85847 | 16.12794 | 41003 ft | 489 kts | 141° |
| 2026-05-06 09:20 | 42.80796 | 16.18999 | 41007 ft | 489 kts | 141° |
| 2026-05-06 09:20 | 42.75734 | 16.25202 | 41012 ft | 489 kts | 141° |
| 2026-05-06 09:21 | 42.70669 | 16.31396 | 41013 ft | 490 kts | 141° |
| 2026-05-06 09:21 | 42.65597 | 16.37583 | 41014 ft | 490 kts | 141° |
| 2026-05-06 09:22 | 42.60521 | 16.43761 | 41018 ft | 490 kts | 141° |
| 2026-05-06 09:22 | 42.55470 | 16.49895 | 41020 ft | 490 kts | 141° |
| 2026-05-06 09:23 | 42.50387 | 16.56053 | 41021 ft | 490 kts | 141° |
| 2026-05-06 09:23 | 42.45294 | 16.62210 | 41021 ft | 490 kts | 141° |
| 2026-05-06 09:24 | 42.40227 | 16.68322 | 41025 ft | 490 kts | 141° |
| 2026-05-06 09:24 | 42.35135 | 16.74449 | 41019 ft | 491 kts | 141° |
| 2026-05-06 09:25 | 42.30027 | 16.80582 | 41023 ft | 491 kts | 141° |
| 2026-05-06 09:25 | 42.24918 | 16.86703 | 41034 ft | 491 kts | 141° |
| 2026-05-06 09:26 | 42.19811 | 16.92808 | 41033 ft | 491 kts | 141° |
| 2026-05-06 09:26 | 42.14696 | 16.98908 | 41035 ft | 491 kts | 141° |
| 2026-05-06 09:27 | 42.09579 | 17.04996 | 41036 ft | 491 kts | 141° |
| 2026-05-06 09:27 | 42.04451 | 17.11086 | 41036 ft | 491 kts | 141° |
| 2026-05-06 09:28 | 41.99326 | 17.17164 | 41040 ft | 492 kts | 142° |
| 2026-05-06 09:28 | 41.94105 | 17.22985 | 41041 ft | 489 kts | 147° |
| 2026-05-06 09:29 | 41.88374 | 17.27951 | 41044 ft | 486 kts | 154° |
| 2026-05-06 09:29 | 41.82413 | 17.32061 | 41042 ft | 485 kts | 156° |
| 2026-05-06 09:30 | 41.76412 | 17.36205 | 41043 ft | 485 kts | 156° |
| 2026-05-06 09:30 | 41.70412 | 17.40354 | 41047 ft | 486 kts | 156° |
| 2026-05-06 09:31 | 41.64394 | 17.44503 | 41048 ft | 486 kts | 156° |
| 2026-05-06 09:31 | 41.58375 | 17.48642 | 41049 ft | 486 kts | 156° |
| 2026-05-06 09:32 | 41.52358 | 17.52771 | 41051 ft | 487 kts | 156° |
| 2026-05-06 09:32 | 41.46330 | 17.56898 | 41052 ft | 487 kts | 156° |
| 2026-05-06 09:33 | 41.40299 | 17.61019 | 41051 ft | 487 kts | 156° |
| 2026-05-06 09:33 | 41.34264 | 17.65134 | 41047 ft | 487 kts | 156° |
| 2026-05-06 09:34 | 41.28218 | 17.69248 | 41056 ft | 488 kts | 156° |
| 2026-05-06 09:34 | 41.22182 | 17.73347 | 41056 ft | 488 kts | 156° |
| 2026-05-06 09:35 | 41.16132 | 17.77446 | 41058 ft | 488 kts | 156° |
| 2026-05-06 09:35 | 41.10082 | 17.81537 | 41058 ft | 488 kts | 156° |
| 2026-05-06 09:36 | 41.04028 | 17.85622 | 41062 ft | 488 kts | 156° |
| 2026-05-06 09:36 | 40.97960 | 17.89708 | 41066 ft | 489 kts | 156° |
| 2026-05-06 09:37 | 40.91936 | 17.93756 | 41071 ft | 489 kts | 156° |
| 2026-05-06 09:37 | 40.85871 | 17.97823 | 41071 ft | 489 kts | 156° |
| 2026-05-06 09:38 | 40.79800 | 18.01886 | 41073 ft | 489 kts | 156° |
| 2026-05-06 09:38 | 40.73728 | 18.05941 | 41074 ft | 489 kts | 156° |
| 2026-05-06 09:39 | 40.67654 | 18.09989 | 41071 ft | 489 kts | 156° |
| 2026-05-06 09:39 | 40.61577 | 18.14031 | 41073 ft | 489 kts | 156° |
| 2026-05-06 09:40 | 40.55494 | 18.18068 | 41074 ft | 489 kts | 156° |
| 2026-05-06 09:40 | 40.46372 | 18.24107 | 41073 ft | 490 kts | 156° |
| 2026-05-06 09:41 | 40.40278 | 18.28131 | 41067 ft | 490 kts | 156° |
| 2026-05-06 09:41 | 40.34180 | 18.32149 | 41062 ft | 490 kts | 156° |
| 2026-05-06 09:42 | 40.28086 | 18.36157 | 41065 ft | 490 kts | 156° |
| 2026-05-06 09:42 | 40.21989 | 18.40159 | 41076 ft | 490 kts | 156° |
| 2026-05-06 09:43 | 40.15923 | 18.44132 | 41090 ft | 490 kts | 156° |
| 2026-05-06 09:43 | 40.09820 | 18.48122 | 41093 ft | 490 kts | 156° |
| 2026-05-06 09:44 | 40.04703 | 18.51461 | 41093 ft | 491 kts | 156° |
| 2026-05-06 09:44 | 39.97604 | 18.56083 | 41102 ft | 491 kts | 156° |
| 2026-05-06 09:45 | 39.92475 | 18.59416 | 41105 ft | 491 kts | 156° |
| 2026-05-06 09:45 | 39.86357 | 18.63384 | 41106 ft | 491 kts | 156° |
| 2026-05-06 09:46 | 39.80232 | 18.67349 | 41107 ft | 492 kts | 156° |
| 2026-05-06 09:46 | 39.74142 | 18.71284 | 41113 ft | 492 kts | 156° |
| 2026-05-06 09:47 | 39.68006 | 18.75240 | 41112 ft | 492 kts | 156° |
| 2026-05-06 09:47 | 39.61869 | 18.79190 | 41116 ft | 492 kts | 156° |
| 2026-05-06 09:48 | 39.55722 | 18.83137 | 41120 ft | 492 kts | 156° |
| 2026-05-06 09:48 | 39.49578 | 18.87075 | 41123 ft | 492 kts | 156° |
| 2026-05-06 09:49 | 39.43423 | 18.91012 | 41123 ft | 493 kts | 156° |
| 2026-05-06 09:49 | 39.37272 | 18.94940 | 41122 ft | 493 kts | 156° |
| 2026-05-06 09:50 | 39.31210 | 18.98969 | 41121 ft | 494 kts | 152° |
| 2026-05-06 09:50 | 39.25601 | 19.04139 | 41118 ft | 498 kts | 142° |
| 2026-05-06 09:51 | 39.20398 | 19.10055 | 41116 ft | 498 kts | 141° |
| 2026-05-06 09:51 | 39.15182 | 19.15946 | 41114 ft | 499 kts | 141° |
| 2026-05-06 09:52 | 39.09956 | 19.21828 | 41114 ft | 499 kts | 141° |
| 2026-05-06 09:52 | 39.04723 | 19.27707 | 41121 ft | 500 kts | 141° |
| 2026-05-06 09:53 | 38.99475 | 19.33591 | 41120 ft | 500 kts | 141° |
| 2026-05-06 09:53 | 38.94223 | 19.39464 | 41130 ft | 500 kts | 141° |
| 2026-05-06 09:54 | 38.88996 | 19.45294 | 41131 ft | 501 kts | 141° |
| 2026-05-06 09:54 | 38.83735 | 19.51150 | 41132 ft | 501 kts | 141° |
| 2026-05-06 09:55 | 38.78463 | 19.57006 | 41134 ft | 501 kts | 141° |
| 2026-05-06 09:55 | 38.73189 | 19.62853 | 41137 ft | 501 kts | 141° |
| 2026-05-06 09:56 | 38.67923 | 19.68679 | 41136 ft | 501 kts | 141° |
| 2026-05-06 09:56 | 38.62635 | 19.74517 | 41134 ft | 501 kts | 141° |
| 2026-05-06 09:57 | 38.57356 | 19.80334 | 41138 ft | 501 kts | 141° |
| 2026-05-06 09:57 | 38.52073 | 19.86143 | 41142 ft | 501 kts | 141° |
| 2026-05-06 09:58 | 38.46787 | 19.91945 | 41139 ft | 501 kts | 141° |
| 2026-05-06 09:58 | 38.41494 | 19.97742 | 41137 ft | 501 kts | 141° |
| 2026-05-06 09:59 | 38.36196 | 20.03532 | 41137 ft | 502 kts | 142° |
| 2026-05-06 09:59 | 38.30933 | 20.09274 | 41140 ft | 502 kts | 142° |
| 2026-05-06 10:00 | 38.25613 | 20.15066 | 41135 ft | 502 kts | 142° |
| 2026-05-06 10:00 | 38.20293 | 20.20846 | 41133 ft | 503 kts | 142° |
| 2026-05-06 10:01 | 38.14968 | 20.26620 | 41128 ft | 503 kts | 142° |
| 2026-05-06 10:01 | 38.09638 | 20.32389 | 41127 ft | 504 kts | 142° |
| 2026-05-06 10:02 | 38.04331 | 20.38120 | 41125 ft | 504 kts | 142° |
| 2026-05-06 10:02 | 37.98977 | 20.43890 | 41135 ft | 505 kts | 142° |
| 2026-05-06 10:03 | 37.93644 | 20.49629 | 41134 ft | 500 kts | 142° |
| 2026-05-06 10:03 | 37.88309 | 20.55356 | 41137 ft | 505 kts | 142° |
| 2026-05-06 10:04 | 37.82943 | 20.61106 | 41138 ft | 506 kts | 142° |
| 2026-05-06 10:04 | 37.77576 | 20.66846 | 41135 ft | 506 kts | 142° |
| 2026-05-06 10:05 | 37.72194 | 20.72590 | 41131 ft | 506 kts | 142° |
| 2026-05-06 10:05 | 37.66810 | 20.78326 | 41131 ft | 506 kts | 142° |
| 2026-05-06 10:06 | 37.61425 | 20.84051 | 41133 ft | 507 kts | 142° |
| 2026-05-06 10:06 | 37.56033 | 20.89772 | 41135 ft | 507 kts | 142° |
| 2026-05-06 10:07 | 37.50627 | 20.95497 | 41135 ft | 507 kts | 142° |
| 2026-05-06 10:07 | 37.45261 | 21.01168 | 41138 ft | 507 kts | 142° |
| 2026-05-06 10:08 | 37.39797 | 21.06894 | 41137 ft | 507 kts | 142° |
| 2026-05-06 10:08 | 37.34395 | 21.12509 | 41138 ft | 508 kts | 142° |
| 2026-05-06 10:09 | 37.28951 | 21.18163 | 41140 ft | 508 kts | 142° |
| 2026-05-06 10:09 | 37.23503 | 21.23816 | 41137 ft | 508 kts | 142° |
| 2026-05-06 10:10 | 37.18047 | 21.29471 | 41138 ft | 508 kts | 142° |
| 2026-05-06 10:10 | 37.12593 | 21.35117 | 41133 ft | 509 kts | 142° |
| 2026-05-06 10:11 | 37.07132 | 21.40764 | 41134 ft | 509 kts | 142° |
| 2026-05-06 10:11 | 37.01670 | 21.46404 | 41135 ft | 509 kts | 142° |
| 2026-05-06 10:12 | 36.96242 | 21.52002 | 41137 ft | 509 kts | 142° |
| 2026-05-06 10:12 | 36.90764 | 21.57647 | 41132 ft | 510 kts | 142° |
| 2026-05-06 10:13 | 36.85293 | 21.63277 | 41134 ft | 510 kts | 142° |
| 2026-05-06 10:13 | 36.79822 | 21.68900 | 41128 ft | 510 kts | 142° |
| 2026-05-06 10:14 | 36.74333 | 21.74538 | 41128 ft | 510 kts | 142° |
| 2026-05-06 10:14 | 36.68851 | 21.80166 | 41128 ft | 511 kts | 142° |
| 2026-05-06 10:15 | 36.63353 | 21.85762 | 41126 ft | 510 kts | 143° |
| 2026-05-06 10:15 | 36.57912 | 21.91440 | 41120 ft | 511 kts | 142° |
| 2026-05-06 10:16 | 36.52472 | 21.97138 | 41121 ft | 511 kts | 142° |
| 2026-05-06 10:16 | 36.46987 | 22.02774 | 41122 ft | 511 kts | 142° |
| 2026-05-06 10:17 | 36.41493 | 22.08383 | 41128 ft | 511 kts | 143° |
| 2026-05-06 10:17 | 36.35989 | 22.13988 | 41122 ft | 512 kts | 143° |
| 2026-05-06 10:18 | 36.30513 | 22.19554 | 41129 ft | 512 kts | 143° |
| 2026-05-06 10:18 | 36.24960 | 22.25189 | 41128 ft | 513 kts | 143° |
| 2026-05-06 10:19 | 36.19474 | 22.30746 | 41116 ft | 513 kts | 143° |
| 2026-05-06 10:19 | 36.13948 | 22.36332 | 41120 ft | 513 kts | 143° |
| 2026-05-06 10:20 | 36.08416 | 22.41914 | 41138 ft | 514 kts | 143° |
| 2026-05-06 10:20 | 36.02874 | 22.47495 | 41139 ft | 514 kts | 143° |
| 2026-05-06 10:21 | 35.97327 | 22.53072 | 41134 ft | 514 kts | 143° |
| 2026-05-06 10:21 | 35.91774 | 22.58643 | 41136 ft | 514 kts | 143° |
| 2026-05-06 10:22 | 35.86216 | 22.64209 | 41122 ft | 515 kts | 143° |
| 2026-05-06 10:22 | 35.80656 | 22.69768 | 41119 ft | 515 kts | 143° |
| 2026-05-06 10:23 | 35.75078 | 22.75333 | 41118 ft | 515 kts | 143° |
| 2026-05-06 10:23 | 35.69504 | 22.80884 | 41123 ft | 516 kts | 143° |
| 2026-05-06 10:24 | 35.63919 | 22.86437 | 41139 ft | 516 kts | 143° |
| 2026-05-06 10:24 | 35.58367 | 22.91945 | 41145 ft | 516 kts | 143° |
| 2026-05-06 10:25 | 35.52766 | 22.97493 | 41142 ft | 516 kts | 143° |
| 2026-05-06 10:25 | 35.47166 | 23.03029 | 41140 ft | 517 kts | 143° |
| 2026-05-06 10:26 | 35.41559 | 23.08562 | 41120 ft | 517 kts | 143° |
| 2026-05-06 10:26 | 35.35950 | 23.14086 | 41138 ft | 517 kts | 143° |
| 2026-05-06 10:27 | 35.30333 | 23.19608 | 41143 ft | 518 kts | 143° |
| 2026-05-06 10:27 | 35.25092 | 23.25549 | 41141 ft | 521 kts | 128° |
| 2026-05-06 10:28 | 35.23122 | 23.29275 | 41139 ft | 522 kts | 117° |
| 2026-05-06 10:28 | 35.21747 | 23.33374 | 41140 ft | 522 kts | 105° |
| 2026-05-06 10:28 | 35.21012 | 23.37714 | 41139 ft | 520 kts | 94° |
| 2026-05-06 10:28 | 35.20943 | 23.42117 | 41133 ft | 517 kts | 83° |
| 2026-05-06 10:29 | 35.21539 | 23.46433 | 41114 ft | 513 kts | 71° |
| 2026-05-06 10:29 | 35.22749 | 23.50489 | 40928 ft | 505 kts | 60° |
| 2026-05-06 10:29 | 35.24516 | 23.54176 | 40400 ft | 499 kts | 49° |
| 2026-05-06 10:29 | 35.26782 | 23.57350 | 39723 ft | 493 kts | 38° |
| 2026-05-06 10:30 | 35.29473 | 23.59900 | 39022 ft | 487 kts | 26° |
| 2026-05-06 10:30 | 35.32472 | 23.61698 | 38459 ft | 475 kts | 14° |
| 2026-05-06 10:30 | 35.35613 | 23.62674 | 38109 ft | 458 kts | 4° |
| 2026-05-06 10:30 | 35.38758 | 23.63113 | 37850 ft | 452 kts | 1° |
| 2026-05-06 10:31 | 35.41889 | 23.63556 | 37593 ft | 455 kts | 3° |
| 2026-05-06 10:31 | 35.45046 | 23.64167 | 37313 ft | 460 kts | 6° |
| 2026-05-06 10:31 | 35.47128 | 23.64650 | 37149 ft | 462 kts | 7° |
| 2026-05-06 10:31 | 35.51275 | 23.65727 | 36797 ft | 461 kts | 8° |
| 2026-05-06 10:32 | 35.54421 | 23.66588 | 36541 ft | 461 kts | 8° |
| 2026-05-06 10:32 | 35.57558 | 23.67456 | 36284 ft | 462 kts | 8° |
| 2026-05-06 10:32 | 35.60693 | 23.68324 | 36035 ft | 461 kts | 8° |
| 2026-05-06 10:32 | 35.63832 | 23.69192 | 35780 ft | 461 kts | 8° |
| 2026-05-06 10:33 | 35.66964 | 23.70056 | 35535 ft | 462 kts | 8° |
| 2026-05-06 10:33 | 35.69043 | 23.70629 | 35372 ft | 462 kts | 8° |
| 2026-05-06 10:33 | 35.72178 | 23.71495 | 35133 ft | 462 kts | 8° |
| 2026-05-06 10:33 | 35.75310 | 23.72360 | 34893 ft | 462 kts | 8° |
| 2026-05-06 10:34 | 35.78447 | 23.73227 | 34656 ft | 460 kts | 8° |
| 2026-05-06 10:34 | 35.81568 | 23.74090 | 34419 ft | 458 kts | 8° |
| 2026-05-06 10:34 | 35.84661 | 23.74924 | 34188 ft | 454 kts | 7° |
| 2026-05-06 10:34 | 35.87748 | 23.75745 | 33926 ft | 452 kts | 7° |
| 2026-05-06 10:35 | 35.90811 | 23.76570 | 33653 ft | 450 kts | 7° |
| 2026-05-06 10:35 | 35.93862 | 23.77404 | 33383 ft | 448 kts | 7° |
| 2026-05-06 10:35 | 35.96899 | 23.78244 | 33128 ft | 446 kts | 7° |
| 2026-05-06 10:35 | 35.99921 | 23.79083 | 32869 ft | 444 kts | 7° |
| 2026-05-06 10:36 | 36.02924 | 23.79920 | 32611 ft | 441 kts | 7° |
| 2026-05-06 10:36 | 36.05913 | 23.80754 | 32355 ft | 439 kts | 7° |
| 2026-05-06 10:36 | 36.08850 | 23.81572 | 32108 ft | 437 kts | 7° |
| 2026-05-06 10:36 | 36.11808 | 23.82398 | 31856 ft | 435 kts | 7° |
| 2026-05-06 10:37 | 36.14756 | 23.83222 | 31602 ft | 433 kts | 7° |
| 2026-05-06 10:37 | 36.17704 | 23.84038 | 31360 ft | 437 kts | 7° |
| 2026-05-06 10:37 | 36.20705 | 23.84843 | 31123 ft | 446 kts | 7° |
| 2026-05-06 10:37 | 36.23768 | 23.85667 | 30883 ft | 454 kts | 7° |
| 2026-05-06 10:38 | 36.26876 | 23.86520 | 30638 ft | 458 kts | 8° |
| 2026-05-06 10:38 | 36.29979 | 23.87398 | 30401 ft | 457 kts | 8° |
| 2026-05-06 10:38 | 36.33080 | 23.88285 | 30159 ft | 456 kts | 8° |
| 2026-05-06 10:38 | 36.36170 | 23.89168 | 29885 ft | 453 kts | 8° |
| 2026-05-06 10:39 | 36.39199 | 23.90027 | 29611 ft | 451 kts | 8° |
| 2026-05-06 10:39 | 36.42255 | 23.90890 | 29349 ft | 449 kts | 8° |
| 2026-05-06 10:39 | 36.45297 | 23.91748 | 29073 ft | 448 kts | 8° |
| 2026-05-06 10:39 | 36.48324 | 23.92600 | 28797 ft | 446 kts | 8° |
| 2026-05-06 10:40 | 36.51352 | 23.93454 | 28535 ft | 444 kts | 8° |
| 2026-05-06 10:40 | 36.54362 | 23.94302 | 28272 ft | 443 kts | 8° |
| 2026-05-06 10:40 | 36.57388 | 23.95141 | 28012 ft | 449 kts | 8° |
| 2026-05-06 10:40 | 36.60440 | 23.95988 | 27756 ft | 450 kts | 8° |
| 2026-05-06 10:41 | 36.63487 | 23.96850 | 27507 ft | 448 kts | 8° |
| 2026-05-06 10:41 | 36.66522 | 23.97717 | 27245 ft | 447 kts | 8° |
| 2026-05-06 10:41 | 36.69552 | 23.98578 | 26992 ft | 449 kts | 8° |
| 2026-05-06 10:41 | 36.72626 | 23.99427 | 26753 ft | 455 kts | 8° |
| 2026-05-06 10:42 | 36.75715 | 24.00293 | 26508 ft | 455 kts | 8° |
| 2026-05-06 10:42 | 36.78798 | 24.01172 | 26263 ft | 454 kts | 8° |
| 2026-05-06 10:42 | 36.81878 | 24.02056 | 26016 ft | 452 kts | 9° |
| 2026-05-06 10:42 | 36.84940 | 24.02933 | 25779 ft | 451 kts | 8° |
| 2026-05-06 10:43 | 36.87989 | 24.03804 | 25535 ft | 449 kts | 8° |
| 2026-05-06 10:43 | 36.91037 | 24.04670 | 25292 ft | 447 kts | 7° |
| 2026-05-06 10:43 | 36.94100 | 24.05070 | 25059 ft | 441 kts | 356° |
| 2026-05-06 10:44 | 36.99962 | 24.03377 | 24571 ft | 432 kts | 333° |
| 2026-05-06 10:44 | 37.02517 | 24.01426 | 24328 ft | 430 kts | 322° |
| 2026-05-06 10:44 | 37.04687 | 23.98859 | 24114 ft | 430 kts | 311° |
| 2026-05-06 10:44 | 37.06394 | 23.95801 | 23795 ft | 427 kts | 303° |
| 2026-05-06 10:45 | 37.08101 | 23.92801 | 23255 ft | 417 kts | 313° |
| 2026-05-06 10:45 | 37.10200 | 23.90477 | 23080 ft | 399 kts | 325° |
| 2026-05-06 10:45 | 37.12610 | 23.88805 | 22747 ft | 386 kts | 336° |
| 2026-05-06 10:45 | 37.15137 | 23.87819 | 21819 ft | 390 kts | 347° |
| 2026-05-06 10:46 | 37.17834 | 23.87399 | 21008 ft | 390 kts | 351° |
| 2026-05-06 10:46 | 37.20529 | 23.87007 | 20295 ft | 388 kts | 351° |
| 2026-05-06 10:46 | 37.23200 | 23.86599 | 19595 ft | 385 kts | 351° |
| 2026-05-06 10:46 | 37.25860 | 23.86186 | 18908 ft | 384 kts | 351° |
| 2026-05-06 10:47 | 37.28500 | 23.85774 | 18224 ft | 382 kts | 351° |
| 2026-05-06 10:47 | 37.31125 | 23.85365 | 17556 ft | 378 kts | 351° |
| 2026-05-06 10:47 | 37.33722 | 23.84961 | 16904 ft | 373 kts | 351° |
| 2026-05-06 10:47 | 37.36285 | 23.84562 | 16253 ft | 370 kts | 351° |
| 2026-05-06 10:48 | 37.38825 | 23.84167 | 15612 ft | 366 kts | 351° |
| 2026-05-06 10:48 | 37.41348 | 23.83775 | 14973 ft | 363 kts | 351° |
| 2026-05-06 10:48 | 37.43847 | 23.83387 | 14355 ft | 360 kts | 352° |
| 2026-05-06 10:48 | 37.46326 | 23.83001 | 13714 ft | 357 kts | 352° |
| 2026-05-06 10:49 | 37.48787 | 23.82617 | 13031 ft | 354 kts | 352° |
| 2026-05-06 10:49 | 37.51192 | 23.82243 | 12367 ft | 352 kts | 352° |
| 2026-05-06 10:49 | 37.53616 | 23.81865 | 11695 ft | 349 kts | 352° |
| 2026-05-06 10:49 | 37.56019 | 23.81489 | 11062 ft | 347 kts | 352° |
| 2026-05-06 10:50 | 37.58406 | 23.81116 | 10435 ft | 344 kts | 353° |
| 2026-05-06 10:50 | 37.60776 | 23.80746 | 9832 ft | 342 kts | 353° |
| 2026-05-06 10:50 | 37.63086 | 23.80384 | 9626 ft | 326 kts | 353° |
| 2026-05-06 10:50 | 37.65290 | 23.80040 | 9472 ft | 311 kts | 353° |
| 2026-05-06 10:51 | 37.67393 | 23.79711 | 9342 ft | 298 kts | 353° |
| 2026-05-06 10:51 | 37.69404 | 23.79396 | 9219 ft | 285 kts | 353° |
| 2026-05-06 10:51 | 37.71334 | 23.79094 | 8997 ft | 276 kts | 352° |
| 2026-05-06 10:51 | 37.73130 | 23.78370 | 8599 ft | 276 kts | 329° |
| 2026-05-06 10:52 | 37.74507 | 23.76707 | 8223 ft | 277 kts | 304° |
| 2026-05-06 10:52 | 37.75161 | 23.74430 | 7846 ft | 279 kts | 278° |
| 2026-05-06 10:52 | 37.74958 | 23.71996 | 7477 ft | 282 kts | 252° |
| 2026-05-06 10:52 | 37.73924 | 23.69893 | 7110 ft | 285 kts | 226° |
| 2026-05-06 10:53 | 37.72257 | 23.68545 | 6737 ft | 287 kts | 200° |
| 2026-05-06 10:53 | 37.70296 | 23.68232 | 6377 ft | 286 kts | 174° |
| 2026-05-06 10:53 | 37.68420 | 23.69010 | 6002 ft | 285 kts | 147° |
| 2026-05-06 10:53 | 37.67011 | 23.70720 | 5631 ft | 281 kts | 121° |
| 2026-05-06 10:54 | 37.66347 | 23.72972 | 5264 ft | 278 kts | 95° |
| 2026-05-06 10:54 | 37.66541 | 23.75385 | 4886 ft | 273 kts | 68° |
| 2026-05-06 10:54 | 37.67544 | 23.77375 | 4512 ft | 269 kts | 41° |
| 2026-05-06 10:54 | 37.69107 | 23.78547 | 4131 ft | 265 kts | 15° |
| 2026-05-06 10:55 | 37.70927 | 23.78726 | 3718 ft | 263 kts | 354° |
| 2026-05-06 10:55 | 37.72744 | 23.78494 | 3393 ft | 261 kts | 353° |
| 2026-05-06 10:55 | 37.74519 | 23.78304 | 3291 ft | 250 kts | 354° |
| 2026-05-06 10:55 | 37.76215 | 23.78183 | 3206 ft | 237 kts | 356° |
| 2026-05-06 10:56 | 37.77801 | 23.78436 | 3088 ft | 228 kts | 18° |
| 2026-05-06 10:56 | 37.79123 | 23.79467 | 2996 ft | 219 kts | 36° |
| 2026-05-06 10:56 | 37.80291 | 23.80625 | 2911 ft | 207 kts | 35° |
| 2026-05-06 10:56 | 37.81378 | 23.81662 | 2688 ft | 186 kts | 34° |
| 2026-05-06 10:57 | 37.82413 | 23.82630 | 2362 ft | 181 kts | 34° |
| 2026-05-06 10:57 | 37.83377 | 23.83533 | 2215 ft | 161 kts | 33° |
| 2026-05-06 10:57 | 37.84231 | 23.84334 | 2217 ft | 148 kts | 31° |
| 2026-05-06 10:57 | 37.85054 | 23.85112 | 2092 ft | 148 kts | 33° |
| 2026-05-06 10:58 | 37.85886 | 23.85918 | 1877 ft | 149 kts | 25° |
| 2026-05-06 10:58 | 37.86729 | 23.86669 | 1697 ft | 150 kts | 28° |
| 2026-05-06 10:58 | 37.87554 | 23.87484 | 1491 ft | 151 kts | 33° |
| 2026-05-06 10:58 | 37.88398 | 23.88278 | 1261 ft | 150 kts | 35° |
| 2026-05-06 10:59 | 37.89219 | 23.89030 | 1085 ft | 144 kts | 41° |
| 2026-05-06 10:59 | 37.90000 | 23.89809 | 883 ft | 142 kts | 41° |
| 2026-05-06 10:59 | 37.90763 | 23.90590 | 662 ft | 139 kts | 37° |
| 2026-05-06 10:59 | 37.91546 | 23.91296 | 472 ft | 139 kts | 42° |
| 2026-05-06 11:00 | 37.92325 | 23.92016 | 329 ft | 138 kts | 44° |
| 2026-05-06 11:00 | 37.93031 | 23.92753 | 277 ft | 123 kts | 35° |
| 2026-05-06 11:00 | 37.93659 | 23.93314 | 286 ft | 79 kts | 38° |
| 2026-05-06 11:00 | 37.93888 | 23.93534 | 287 ft | 23 kts | 37° |
| 2026-05-06 11:01 | 37.94000 | 23.93641 | 290 ft | 18 kts | 37° |
| 2026-05-06 11:01 | 37.94108 | 23.93745 | 297 ft | 21 kts | 37° |
| 2026-05-06 11:01 | 37.94195 | 23.93861 | 297 ft | 17 kts | 59° |
| 2026-05-06 11:01 | 37.94246 | 23.93979 | 296 ft | 13 kts | 63° |
| 2026-05-06 11:02 | 37.94251 | 23.93994 | 297 ft | 0 kts | 63° |
| 2026-05-06 11:02 | 37.94252 | 23.93996 | 296 ft | 3 kts | 63° |
| 2026-05-06 11:02 | 37.94286 | 23.94092 | 298 ft | 21 kts | 67° |
| 2026-05-06 11:03 | 37.94357 | 23.94261 | 299 ft | 20 kts | 45° |
| 2026-05-06 11:03 | 37.94459 | 23.94362 | 299 ft | 19 kts | 36° |
| 2026-05-06 11:03 | 37.94571 | 23.94466 | 301 ft | 21 kts | 36° |
| 2026-05-06 11:03 | 37.94671 | 23.94568 | 301 ft | 14 kts | 58° |
| 2026-05-06 11:04 | 37.94660 | 23.94663 | 303 ft | 13 kts | 123° |
| 2026-05-06 11:04 | 37.94591 | 23.94782 | 303 ft | 18 kts | 127° |
| 2026-05-06 11:04 | 37.94516 | 23.94908 | 302 ft | 22 kts | 127° |
| 2026-05-06 11:04 | 37.94411 | 23.95084 | 304 ft | 24 kts | 127° |
| 2026-05-06 11:05 | 37.94320 | 23.95235 | 303 ft | 20 kts | 127° |
| 2026-05-06 11:05 | 37.94223 | 23.95396 | 304 ft | 23 kts | 127° |
| 2026-05-06 11:05 | 37.94137 | 23.95542 | 306 ft | 19 kts | 126° |
| 2026-05-06 11:05 | 37.94071 | 23.95639 | 306 ft | 10 kts | 164° |
| 2026-05-06 11:06 | 37.93988 | 23.95599 | 305 ft | 20 kts | 216° |
| 2026-05-06 11:06 | 37.93865 | 23.95483 | 305 ft | 24 kts | 218° |
| 2026-05-06 11:06 | 37.93742 | 23.95360 | 303 ft | 19 kts | 217° |
| 2026-05-06 11:06 | 37.93623 | 23.95254 | 302 ft | 23 kts | 216° |
| 2026-05-06 11:07 | 37.93496 | 23.95131 | 300 ft | 23 kts | 217° |
| 2026-05-06 11:07 | 37.93395 | 23.95031 | 300 ft | 13 kts | 235° |
| 2026-05-06 11:07 | 37.93399 | 23.94940 | 298 ft | 8 kts | 302° |
| 2026-05-06 11:07 | 37.93443 | 23.94880 | 297 ft | 9 kts | 323° |
| 2026-05-06 11:08 | 37.93491 | 23.94872 | 298 ft | 3 kts | 22° |
| 2026-05-06 11:08 | 37.93497 | 23.94875 | 297 ft | 1 kts | 29° |
| 2026-05-06 11:08 | 37.93507 | 23.94883 | 297 ft | 3 kts | 32° |
| 2026-05-06 11:08 | 37.93514 | 23.94888 | 297 ft | 2 kts | 25° |
| 2026-05-06 11:09 | 37.93536 | 23.94891 | 298 ft | 4 kts | 343° |
| 2026-05-06 11:09 | 37.93557 | 23.94864 | 297 ft | 5 kts | 276° |
| 2026-05-06 11:09 | 37.93559 | 23.94823 | 294 ft | 3 kts | 284° |
| 2026-05-06 11:09 | 37.93565 | 23.94803 | 294 ft | 0 kts | 303° |
| 2026-05-06 11:10 | 37.93567 | 23.94800 | 295 ft | 0 kts | 304° |
| 2026-05-06 11:10 | 37.93568 | 23.94798 | 295 ft | 0 kts | 307° |
| 2026-05-06 11:11 | 37.93555 | 23.94811 | 299 ft | 3 kts | 336° |
| 2026-05-06 11:11 | 37.93540 | 23.94824 | 295 ft | 3 kts | 306° |
| 2026-05-06 11:11 | 37.93531 | 23.94840 | 297 ft | 2 kts | 305° |
| 2026-05-06 11:11 | 37.93538 | 23.94829 | 295 ft | 2 kts | 311° |
| 2026-05-06 11:12 | 37.93546 | 23.94819 | 298 ft | 2 kts | 323° |
| 2026-05-06 11:12 | 37.93551 | 23.94815 | 299 ft | 0 kts | 307° |